createdAt,value
2023-03-19T00:01:39.932Z,5.95
2023-03-19T00:04:07.273Z,6.38
2023-03-19T00:06:34.424Z,6.05
2023-03-19T00:09:01.682Z,5.90
2023-03-19T00:11:28.813Z,6.03
2023-03-19T00:13:55.946Z,5.55
2023-03-19T00:16:23.206Z,5.13
2023-03-19T00:18:50.431Z,4.97
2023-03-19T00:21:17.590Z,5.35
2023-03-19T00:23:44.711Z,5.30
2023-03-19T00:26:12.100Z,5.53
2023-03-19T00:28:39.549Z,5.05
2023-03-19T00:31:14.076Z,5.32
2023-03-19T00:33:41.258Z,5.50
2023-03-19T00:36:08.889Z,4.75
2023-03-19T00:38:36.654Z,5.45
2023-03-19T00:41:05.275Z,4.75
2023-03-19T00:43:33.084Z,4.97
2023-03-19T00:46:00.587Z,4.78
2023-03-19T00:48:27.744Z,4.88
2023-03-19T00:50:54.919Z,5.03
2023-03-19T00:53:22.122Z,5.45
2023-03-19T00:55:49.396Z,5.45
2023-03-19T00:58:16.576Z,5.53
2023-03-19T01:00:43.963Z,4.82
2023-03-19T01:03:11.150Z,5.20
2023-03-19T01:05:41.462Z,5.53
2023-03-19T01:08:08.756Z,5.90
2023-03-19T01:10:36.120Z,4.93
2023-03-19T01:13:03.479Z,4.95
2023-03-19T01:15:30.746Z,4.88
2023-03-19T01:17:57.963Z,5.25
2023-03-19T01:20:25.154Z,6.00
2023-03-19T01:22:52.294Z,5.03
2023-03-19T01:25:19.504Z,5.38
2023-03-19T01:27:46.692Z,5.38
2023-03-19T01:30:14.361Z,5.47
2023-03-19T01:32:41.870Z,4.82
2023-03-19T01:35:09.694Z,4.60
2023-03-19T01:37:37.734Z,4.90
2023-03-19T01:40:06.009Z,5.03
2023-03-19T01:42:34.039Z,5.25
2023-03-19T01:45:03.116Z,4.97
2023-03-19T01:47:46.446Z,4.93
2023-03-19T01:50:27.236Z,5.07
2023-03-19T01:52:54.413Z,5.22
2023-03-19T01:55:22.464Z,5.45
2023-03-19T01:57:49.635Z,5.20
2023-03-19T02:00:17.227Z,5.07
2023-03-19T02:02:45.550Z,5.57
2023-03-19T02:05:25.433Z,5.50
2023-03-19T02:07:57.602Z,5.40
2023-03-19T02:10:26.269Z,5.40
2023-03-19T02:12:53.460Z,5.72
2023-03-19T02:15:20.790Z,5.10
2023-03-19T02:17:48.400Z,4.72
2023-03-19T02:20:39.060Z,5.38
2023-03-19T02:23:25.088Z,5.18
2023-03-19T02:26:02.109Z,5.00
2023-03-19T02:28:29.688Z,5.05
2023-03-19T02:30:56.838Z,4.85
2023-03-19T02:33:23.985Z,5.10
2023-03-19T02:35:52.522Z,4.65
2023-03-19T02:38:23.246Z,4.72
2023-03-19T02:40:53.642Z,5.10
2023-03-19T02:43:21.961Z,5.00
2023-03-19T02:45:49.190Z,4.65
2023-03-19T02:48:16.382Z,4.90
2023-03-19T02:50:43.512Z,5.05
2023-03-19T02:53:10.717Z,4.88
2023-03-19T02:55:37.944Z,5.10
2023-03-19T02:58:05.169Z,5.32
2023-03-19T03:00:32.580Z,5.22
2023-03-19T03:02:59.999Z,5.20
2023-03-19T03:05:27.245Z,5.05
2023-03-19T03:07:54.451Z,4.90
2023-03-19T03:10:21.613Z,5.57
2023-03-19T03:12:48.834Z,5.43
2023-03-19T03:15:16.148Z,5.88
2023-03-19T03:17:44.283Z,5.47
2023-03-19T03:20:12.707Z,5.00
2023-03-19T03:22:40.578Z,5.15
2023-03-19T03:25:07.895Z,5.28
2023-03-19T03:27:35.088Z,5.78
2023-03-19T03:30:02.241Z,5.15
2023-03-19T03:32:29.393Z,6.32
2023-03-19T03:34:56.776Z,4.72
2023-03-19T03:37:23.959Z,5.57
2023-03-19T03:39:51.625Z,5.20
2023-03-19T03:42:18.775Z,5.65
2023-03-19T03:44:45.900Z,5.55
2023-03-19T03:47:13.471Z,5.18
2023-03-19T03:49:40.663Z,4.97
2023-03-19T03:52:09.017Z,5.13
2023-03-19T03:54:36.217Z,5.05
2023-03-19T03:57:03.867Z,5.28
2023-03-19T03:59:31.161Z,5.35
2023-03-19T04:01:58.428Z,5.50
2023-03-19T04:04:25.694Z,5.00
2023-03-19T04:06:53.005Z,5.53
2023-03-19T04:09:20.170Z,5.82
2023-03-19T04:11:48.692Z,5.20
2023-03-19T04:14:17.169Z,5.70
2023-03-19T04:16:44.406Z,6.18
2023-03-19T04:19:11.602Z,5.80
2023-03-19T04:21:38.789Z,5.43
2023-03-19T04:24:06.098Z,6.68
2023-03-19T04:26:33.568Z,6.07
2023-03-19T04:29:00.934Z,6.43
2023-03-19T04:31:28.470Z,5.55
2023-03-19T04:33:55.624Z,5.72
2023-03-19T04:36:23.404Z,5.95
2023-03-19T04:38:50.600Z,6.30
2023-03-19T04:41:17.816Z,6.35
2023-03-19T04:43:44.993Z,6.32
2023-03-19T04:46:12.191Z,6.65
2023-03-19T04:48:39.881Z,5.60
2023-03-19T04:51:09.294Z,5.40
2023-03-19T04:53:37.906Z,6.00
2023-03-19T04:56:05.470Z,7.13
2023-03-19T04:58:32.604Z,6.70
2023-03-19T05:00:59.868Z,5.90
2023-03-19T05:03:27.266Z,6.40
2023-03-19T05:05:55.320Z,6.43
2023-03-19T05:08:22.625Z,5.70
2023-03-19T05:10:49.757Z,6.38
2023-03-19T05:13:17.782Z,6.30
2023-03-19T05:15:45.567Z,6.25
2023-03-19T05:18:13.367Z,6.43
2023-03-19T05:20:42.573Z,6.20
2023-03-19T05:23:09.783Z,6.97
2023-03-19T05:25:37.048Z,6.03
2023-03-19T05:28:05.306Z,6.60
2023-03-19T05:30:33.564Z,6.65
2023-03-19T05:33:01.686Z,6.97
2023-03-19T05:35:29.818Z,7.50
2023-03-19T05:37:57.420Z,9.10
2023-03-19T05:40:25.100Z,9.93
2023-03-19T05:42:52.379Z,10.43
2023-03-19T05:45:20.794Z,9.23
2023-03-19T05:47:50.074Z,36.33
2023-03-19T05:50:18.046Z,28.65
2023-03-19T05:52:45.208Z,31.13
2023-03-19T05:55:12.525Z,16.40
2023-03-19T05:57:39.960Z,14.68
2023-03-19T06:00:07.863Z,11.93
2023-03-19T06:02:35.600Z,7.50
2023-03-19T06:05:03.002Z,6.55
2023-03-19T06:07:30.257Z,6.10
2023-03-19T06:09:57.477Z,5.90
2023-03-19T06:12:24.838Z,5.65
2023-03-19T06:14:52.070Z,6.10
2023-03-19T06:17:19.215Z,5.30
2023-03-19T06:19:46.444Z,5.32
2023-03-19T06:22:13.603Z,5.68
2023-03-19T06:24:40.986Z,5.43
2023-03-19T06:27:08.272Z,5.00
2023-03-19T06:29:35.461Z,5.60
2023-03-19T06:32:02.818Z,5.55
2023-03-19T06:34:30.027Z,5.55
2023-03-19T06:36:57.230Z,5.60
2023-03-19T06:39:24.506Z,5.05
2023-03-19T06:41:51.979Z,4.53
2023-03-19T06:44:19.219Z,4.70
2023-03-19T06:46:46.462Z,4.88
2023-03-19T06:49:13.713Z,4.78
2023-03-19T06:51:40.954Z,5.25
2023-03-19T06:54:08.088Z,5.60
2023-03-19T06:56:35.685Z,6.25
2023-03-19T06:59:03.074Z,5.20
2023-03-19T07:01:30.416Z,5.28
2023-03-19T07:03:57.613Z,5.38
2023-03-19T07:06:25.063Z,5.50
2023-03-19T07:08:52.286Z,5.07
2023-03-19T07:11:19.758Z,5.25
2023-03-19T07:13:47.148Z,5.50
2023-03-19T07:16:14.324Z,5.18
2023-03-19T07:18:41.473Z,5.70
2023-03-19T07:21:08.831Z,5.82
2023-03-19T07:23:36.006Z,5.43
2023-03-19T07:26:03.824Z,5.78
2023-03-19T07:28:30.964Z,6.13
2023-03-19T07:30:58.155Z,5.53
2023-03-19T07:33:25.560Z,5.40
2023-03-19T07:35:52.965Z,5.28
2023-03-19T07:38:20.268Z,5.93
2023-03-19T07:41:00.990Z,6.07
2023-03-19T07:43:29.499Z,7.22
2023-03-19T07:45:56.914Z,5.80
2023-03-19T07:48:24.122Z,5.43
2023-03-19T07:50:52.294Z,6.22
2023-03-19T07:53:19.627Z,5.93
2023-03-19T07:55:48.878Z,6.18
2023-03-19T07:58:17.330Z,5.47
2023-03-19T08:00:48.090Z,5.85
2023-03-19T08:03:15.967Z,5.65
2023-03-19T08:05:43.164Z,5.70
2023-03-19T08:08:10.537Z,6.22
2023-03-19T08:10:38.795Z,5.20
2023-03-19T08:13:06.901Z,5.70
2023-03-19T08:15:34.719Z,5.82
2023-03-19T08:18:03.454Z,5.55
2023-03-19T08:20:30.801Z,6.65
2023-03-19T08:22:58.355Z,5.47
2023-03-19T08:25:26.260Z,6.45
2023-03-19T08:27:53.526Z,5.97
2023-03-19T08:30:20.681Z,6.25
2023-03-19T08:32:49.434Z,6.93
2023-03-19T08:35:16.849Z,7.53
2023-03-19T08:37:44.082Z,6.72
2023-03-19T08:40:11.615Z,6.68
2023-03-19T08:42:44.972Z,7.35
2023-03-19T08:47:39.913Z,7.53
2023-03-19T08:50:07.433Z,7.07
2023-03-19T08:52:34.747Z,9.07
2023-03-19T08:55:01.940Z,8.13
2023-03-19T08:57:30.604Z,8.32
2023-03-19T08:59:57.971Z,7.90
2023-03-19T09:02:25.263Z,7.93
2023-03-19T09:04:52.573Z,8.80
2023-03-19T09:07:20.009Z,9.02
2023-03-19T09:09:47.207Z,9.82
2023-03-19T09:12:16.806Z,8.35
2023-03-19T09:14:44.252Z,8.93
2023-03-19T09:17:11.600Z,8.80
2023-03-19T09:19:39.051Z,8.90
2023-03-19T09:22:06.462Z,8.07
2023-03-19T09:24:33.628Z,8.52
2023-03-19T09:27:01.132Z,8.10
2023-03-19T09:29:28.343Z,9.18
2023-03-19T09:31:55.946Z,9.15
2023-03-19T09:34:23.211Z,10.65
2023-03-19T09:36:50.710Z,9.60
2023-03-19T09:39:17.955Z,7.97
2023-03-19T09:41:50.779Z,8.40
2023-03-19T09:44:22.960Z,7.18
2023-03-19T09:46:53.003Z,7.72
2023-03-19T09:49:28.666Z,7.22
2023-03-19T09:51:58.441Z,8.02
2023-03-19T09:54:38.289Z,8.02
2023-03-19T09:57:05.686Z,8.27
2023-03-19T09:59:33.191Z,7.40
2023-03-19T10:02:04.937Z,7.70
2023-03-19T10:04:51.218Z,8.18
2023-03-19T10:07:18.568Z,7.40
2023-03-19T10:09:50.886Z,8.93
2023-03-19T10:12:27.212Z,8.35
2023-03-19T10:14:57.448Z,6.68
2023-03-19T10:17:39.099Z,8.55
2023-03-19T10:20:06.416Z,8.65
2023-03-19T10:22:39.085Z,10.00
2023-03-19T10:25:10.172Z,6.67
2023-03-19T10:27:38.354Z,5.93
2023-03-19T10:30:18.230Z,6.32
2023-03-19T10:32:47.565Z,6.45
2023-03-19T10:35:20.609Z,6.53
2023-03-19T10:37:50.131Z,5.75
2023-03-19T10:40:21.986Z,4.22
2023-03-19T10:42:55.258Z,4.45
2023-03-19T10:45:43.015Z,3.45
2023-03-19T10:48:13.766Z,3.40
2023-03-19T10:50:43.876Z,3.00
2023-03-19T10:53:14.076Z,2.70
2023-03-19T10:55:48.936Z,2.30
2023-03-19T10:58:17.600Z,2.65
2023-03-19T11:00:49.392Z,2.88
2023-03-19T11:03:32.218Z,2.05
2023-03-19T11:06:06.972Z,2.28
2023-03-19T11:08:38.848Z,3.28
2023-03-19T11:11:06.303Z,2.67
2023-03-19T11:13:36.031Z,2.70
2023-03-19T11:16:05.778Z,3.42
2023-03-19T11:18:38.543Z,2.88
2023-03-19T11:21:21.521Z,2.20
2023-03-19T11:23:52.953Z,2.27
2023-03-19T11:26:21.652Z,2.45
2023-03-19T11:28:52.663Z,1.88
2023-03-19T11:31:22.513Z,1.63
2023-03-19T11:33:52.779Z,2.17
2023-03-19T11:36:26.486Z,1.90
2023-03-19T11:39:03.382Z,1.73
2023-03-19T11:41:49.370Z,1.50
2023-03-19T11:44:26.136Z,1.70
2023-03-19T11:47:02.467Z,1.63
2023-03-19T11:49:36.646Z,1.85
2023-03-19T11:52:17.088Z,1.67
2023-03-19T11:54:48.404Z,1.55
2023-03-19T11:57:28.693Z,1.55
2023-03-19T12:00:07.759Z,1.85
2023-03-19T12:02:54.068Z,2.00
2023-03-19T12:05:21.337Z,1.70
2023-03-19T12:08:05.296Z,1.27
2023-03-19T12:10:46.270Z,1.80
2023-03-19T12:13:42.839Z,1.50
2023-03-19T12:16:19.234Z,1.35
2023-03-19T12:19:05.366Z,1.38
2023-03-19T12:21:42.520Z,1.55
2023-03-19T12:24:33.900Z,1.33
2023-03-19T12:27:05.878Z,1.38
2023-03-19T12:29:44.964Z,1.30
2023-03-19T12:32:26.334Z,1.10
2023-03-19T12:34:57.764Z,1.27
2023-03-19T12:37:29.111Z,1.63
2023-03-19T12:39:59.307Z,1.30
2023-03-19T12:42:29.692Z,1.15
2023-03-19T12:44:59.198Z,1.50
2023-03-19T12:47:31.349Z,1.13
2023-03-19T12:50:01.971Z,1.20
2023-03-19T12:52:29.193Z,1.20
2023-03-19T12:55:16.959Z,1.00
2023-03-19T12:57:51.279Z,1.83
2023-03-19T13:00:35.979Z,0.77
2023-03-19T13:03:07.170Z,0.85
2023-03-19T13:05:40.502Z,0.90
2023-03-19T13:08:13.477Z,0.70
2023-03-19T13:10:40.815Z,1.77
2023-03-19T13:13:19.195Z,1.20
2023-03-19T13:15:49.704Z,1.05
2023-03-19T13:18:30.653Z,1.30
2023-03-19T13:21:07.698Z,0.82
2023-03-19T13:23:37.302Z,0.75
2023-03-19T13:26:07.842Z,0.90
2023-03-19T13:28:36.630Z,1.00
2023-03-19T13:31:08.337Z,1.17
2023-03-19T13:33:37.557Z,0.90
2023-03-19T13:36:15.130Z,0.90
2023-03-19T13:38:45.502Z,0.80
2023-03-19T13:41:44.809Z,1.45
2023-03-19T13:44:50.654Z,0.90
2023-03-19T13:47:26.953Z,0.95
2023-03-19T13:50:11.662Z,0.88
2023-03-19T13:52:44.974Z,0.80
2023-03-19T13:55:32.867Z,1.42
2023-03-19T13:58:37.216Z,0.70
2023-03-19T14:01:05.398Z,1.45
2023-03-19T14:03:33.696Z,0.88
2023-03-19T14:06:01.805Z,0.65
2023-03-19T14:08:44.838Z,0.98
2023-03-19T14:11:23.762Z,0.82
2023-03-19T14:13:52.391Z,0.90
2023-03-19T14:16:23.765Z,0.82
2023-03-19T14:18:51.063Z,1.30
2023-03-19T14:21:31.860Z,0.90
2023-03-19T14:24:53.492Z,0.80
2023-03-19T14:27:21.647Z,0.70
2023-03-19T14:29:49.283Z,1.10
2023-03-19T14:32:18.050Z,1.35
2023-03-19T14:34:46.272Z,1.70
2023-03-19T14:37:25.140Z,1.20
2023-03-19T14:40:00.038Z,1.30
2023-03-19T14:42:29.189Z,1.10
2023-03-19T14:45:15.297Z,1.33
2023-03-19T14:47:42.455Z,1.30
2023-03-19T14:50:28.243Z,1.23
2023-03-19T14:53:14.970Z,1.08
2023-03-19T14:55:42.789Z,0.90
2023-03-19T14:58:11.893Z,1.25
2023-03-19T15:00:44.088Z,1.42
2023-03-19T15:03:19.274Z,1.48
2023-03-19T15:05:50.181Z,1.38
2023-03-19T15:08:22.131Z,1.33
2023-03-19T15:10:52.281Z,0.98
2023-03-19T15:13:28.482Z,1.40
2023-03-19T15:16:03.703Z,0.98
2023-03-19T15:18:31.015Z,1.40
2023-03-19T15:20:58.133Z,0.88
2023-03-19T15:23:28.389Z,1.35
2023-03-19T15:26:03.312Z,1.27
2023-03-19T15:28:33.168Z,1.27
2023-03-19T15:31:14.232Z,1.70
2023-03-19T15:33:49.864Z,1.58
2023-03-19T15:36:24.734Z,1.27
2023-03-19T15:38:54.926Z,1.50
2023-03-19T15:41:23.922Z,1.50
2023-03-19T15:43:51.255Z,1.45
2023-03-19T15:46:21.590Z,1.80
2023-03-19T15:48:51.556Z,1.55
2023-03-19T15:51:20.008Z,1.50
2023-03-19T15:53:48.052Z,1.42
2023-03-19T15:56:17.165Z,1.60
2023-03-19T15:58:48.477Z,1.75
2023-03-19T16:01:17.339Z,1.27
2023-03-19T16:04:04.833Z,1.35
2023-03-19T16:06:33.295Z,1.60
2023-03-19T16:09:17.806Z,1.70
2023-03-19T16:11:45.872Z,1.80
2023-03-19T16:14:19.064Z,1.90
2023-03-19T16:16:47.220Z,3.03
2023-03-19T16:19:33.161Z,2.83
2023-03-19T16:22:01.541Z,1.73
2023-03-19T16:24:37.826Z,2.38
2023-03-19T16:27:07.200Z,2.22
2023-03-19T16:29:34.756Z,2.70
2023-03-19T16:32:03.442Z,1.85
2023-03-19T16:34:38.522Z,1.30
2023-03-19T16:37:24.893Z,1.30
2023-03-19T16:39:56.058Z,1.70
2023-03-19T16:42:29.072Z,1.55
2023-03-19T16:44:56.690Z,1.88
2023-03-19T16:47:24.011Z,4.03
2023-03-19T16:49:51.151Z,5.13
2023-03-19T16:52:20.478Z,5.60
2023-03-19T16:54:48.056Z,3.40
2023-03-19T16:57:16.963Z,4.88
2023-03-19T16:59:44.863Z,6.47
2023-03-19T17:02:16.278Z,5.38
2023-03-19T17:04:43.853Z,3.20
2023-03-19T17:07:11.070Z,4.90
2023-03-19T17:09:38.643Z,5.15
2023-03-19T17:12:06.668Z,31.67
2023-03-19T17:14:34.527Z,30.42
2023-03-19T17:17:02.259Z,5.75
2023-03-19T17:19:33.857Z,6.95
2023-03-19T17:22:01.125Z,6.78
2023-03-19T17:24:35.174Z,18.23
2023-03-19T17:27:03.622Z,6.22
2023-03-19T17:29:31.385Z,5.10
2023-03-19T17:32:01.791Z,5.35
2023-03-19T17:34:33.537Z,6.25
2023-03-19T17:37:01.598Z,4.03
2023-03-19T17:39:32.914Z,8.10
2023-03-19T17:42:00.369Z,8.18
2023-03-19T17:44:28.086Z,7.90
2023-03-19T17:46:55.668Z,7.43
2023-03-19T17:49:31.752Z,4.63
2023-03-19T17:51:59.527Z,5.72
2023-03-19T17:54:27.277Z,5.63
2023-03-19T17:56:55.089Z,4.82
2023-03-19T17:59:22.893Z,4.03
2023-03-19T18:01:50.844Z,3.20
2023-03-19T18:04:19.469Z,3.80
2023-03-19T18:06:50.744Z,3.33
2023-03-19T18:09:20.048Z,4.28
2023-03-19T18:11:47.208Z,4.60
2023-03-19T18:14:14.356Z,4.35
2023-03-19T18:16:41.677Z,4.30
2023-03-19T18:19:24.903Z,3.97
2023-03-19T18:21:53.094Z,4.30
2023-03-19T18:24:20.556Z,4.80
2023-03-19T18:26:47.950Z,4.80
2023-03-19T18:29:16.546Z,5.60
2023-03-19T18:31:45.028Z,7.05
2023-03-19T18:34:13.934Z,8.20
2023-03-19T18:36:41.525Z,8.68
2023-03-19T18:39:15.487Z,7.72
2023-03-19T18:41:43.065Z,7.60
2023-03-19T18:44:11.247Z,6.75
2023-03-19T18:46:39.529Z,4.60
2023-03-19T18:49:26.332Z,5.35
2023-03-19T18:52:02.591Z,5.65
2023-03-19T18:54:31.193Z,5.93
2023-03-19T18:56:59.127Z,7.28
2023-03-19T18:59:30.987Z,7.93
2023-03-19T19:02:19.682Z,7.20
2023-03-19T19:04:46.968Z,6.10
2023-03-19T19:07:15.239Z,5.80
2023-03-19T19:09:42.738Z,5.80
2023-03-19T19:12:13.467Z,5.30
2023-03-19T19:14:40.824Z,6.03
2023-03-19T19:17:12.481Z,6.95
2023-03-19T19:19:42.532Z,8.15
2023-03-19T19:22:17.044Z,8.65
2023-03-19T19:24:44.515Z,9.60
2023-03-19T19:27:19.708Z,9.15
2023-03-19T19:29:47.131Z,9.60
2023-03-19T19:32:18.918Z,8.35
2023-03-19T19:34:46.195Z,7.95
2023-03-19T19:37:16.810Z,7.55
2023-03-19T19:39:43.969Z,8.55
2023-03-19T19:42:18.522Z,8.57
2023-03-19T19:44:49.516Z,8.98
2023-03-19T19:47:17.346Z,11.73
2023-03-19T19:49:44.921Z,11.48
2023-03-19T19:52:17.253Z,10.35
2023-03-19T19:54:44.876Z,9.95
2023-03-19T19:57:21.631Z,10.93
2023-03-19T19:59:49.957Z,9.88
2023-03-19T20:02:21.781Z,9.20
2023-03-19T20:04:49.538Z,6.70
2023-03-19T20:07:16.752Z,7.45
2023-03-19T20:09:44.089Z,7.10
2023-03-19T20:12:44.738Z,6.72
2023-03-19T20:15:16.360Z,5.88
2023-03-19T20:17:43.675Z,4.82
2023-03-19T20:20:37.219Z,6.72
2023-03-19T20:23:04.448Z,5.57
2023-03-19T20:25:32.817Z,5.88
2023-03-19T20:28:00.865Z,5.65
2023-03-19T20:30:29.932Z,5.57
2023-03-19T20:32:57.964Z,5.32
2023-03-19T20:35:26.695Z,5.55
2023-03-19T20:37:54.591Z,5.20
2023-03-19T20:40:22.714Z,7.45
2023-03-19T20:42:51.566Z,5.82
2023-03-19T20:45:25.922Z,5.68
2023-03-19T20:47:53.523Z,4.78
2023-03-19T20:50:28.149Z,5.90
2023-03-19T20:53:00.920Z,4.85
2023-03-19T20:55:33.935Z,5.00
2023-03-19T20:58:03.800Z,4.63
2023-03-19T21:00:32.726Z,5.15
2023-03-19T21:03:01.437Z,4.93
2023-03-19T21:05:37.009Z,5.40
2023-03-19T21:08:06.242Z,5.18
2023-03-19T21:10:35.298Z,4.95
2023-03-19T21:13:02.603Z,5.43
2023-03-19T21:15:30.456Z,5.72
2023-03-19T21:17:58.182Z,6.07
2023-03-19T21:20:29.389Z,6.00
2023-03-19T21:23:15.888Z,5.63
2023-03-19T21:25:43.596Z,5.32
2023-03-19T21:28:14.487Z,5.93
2023-03-19T21:30:43.384Z,6.95
2023-03-19T21:33:19.809Z,6.68
2023-03-19T21:35:47.010Z,6.40
2023-03-19T21:38:14.263Z,5.68
2023-03-19T21:40:41.443Z,6.22
2023-03-19T21:43:16.541Z,6.60
2023-03-19T21:45:43.969Z,6.45
2023-03-19T21:48:21.548Z,7.15
2023-03-19T21:50:50.189Z,6.45
2023-03-19T21:53:17.892Z,6.28
2023-03-19T21:55:45.504Z,5.90
2023-03-19T21:58:17.006Z,6.45
2023-03-19T22:00:44.602Z,6.40
2023-03-19T22:03:17.514Z,6.07
2023-03-19T22:05:45.028Z,5.80
2023-03-19T22:08:14.844Z,5.97
2023-03-19T22:10:44.619Z,5.80
2023-03-19T22:13:19.205Z,6.10
2023-03-19T22:15:46.454Z,5.07
2023-03-19T22:18:15.719Z,5.97
2023-03-19T22:20:43.920Z,4.85
2023-03-19T22:23:11.973Z,5.07
2023-03-19T22:25:42.305Z,5.47
2023-03-19T22:28:23.782Z,5.40
2023-03-19T22:30:51.043Z,5.00
2023-03-19T22:33:19.808Z,4.75
2023-03-19T22:35:49.489Z,4.82
2023-03-19T22:38:17.397Z,4.57
2023-03-19T22:40:46.590Z,4.53
2023-03-19T22:43:28.068Z,4.20
2023-03-19T22:45:57.247Z,4.93
2023-03-19T22:48:24.570Z,5.53
2023-03-19T22:50:52.299Z,4.60
2023-03-19T22:53:25.535Z,4.28
2023-03-19T22:55:52.844Z,4.88
2023-03-19T22:58:20.388Z,4.47
2023-03-19T23:00:47.967Z,5.10
2023-03-19T23:03:22.874Z,4.72
2023-03-19T23:05:52.694Z,4.82
2023-03-19T23:08:20.616Z,5.53
2023-03-19T23:10:48.044Z,4.55
2023-03-19T23:13:15.350Z,4.72
2023-03-19T23:15:42.941Z,4.53
2023-03-19T23:18:20.090Z,4.60
2023-03-19T23:20:50.019Z,6.07
2023-03-19T23:23:17.948Z,4.95
2023-03-19T23:25:46.514Z,4.70
2023-03-19T23:28:22.267Z,5.30
2023-03-19T23:30:50.470Z,5.50
2023-03-19T23:33:18.925Z,6.00
2023-03-19T23:35:47.087Z,5.07
2023-03-19T23:38:15.152Z,5.00
2023-03-19T23:40:46.304Z,5.53
2023-03-19T23:43:23.575Z,5.53
2023-03-19T23:45:52.239Z,6.07
2023-03-19T23:48:21.649Z,6.15
2023-03-19T23:50:49.166Z,5.43
2023-03-19T23:53:21.853Z,4.82
2023-03-19T23:55:50.305Z,5.10
2023-03-19T23:58:17.946Z,5.30
